• Join FlightAware (Why Join?)
  • Login
  • US Flag 
10:22PM EDT


 

Airport Tracker/Info


-or-


 

Live Flight TrackerFlight Track Log ✈ RPA3341 ✈ 07-Apr-2013 ✈ KPHL - KPIT

Flight Track Log - Related Links

Times and Time Zones

All times are in EDT time to prevent confusion due to time zone crossing. See the RPA3341 flight status page for this flight to view local times or setup timezone preferences in your user account.

Time Position Orientation Groundspeed Altitude Reporting Facility
EDT Latitude Longitude Course Direction KTS MPH feet Rate Location/Type
10:07AM 39.9000 -75.5226 270° West  Level FlightAware Approximate
10:08AM 39.9055 -75.6222 288° West  Level FlightAware Approximate
10:09AM 39.9079 -75.7194 258° West  Level FlightAware Approximate
10:10AM 39.9000 -75.8191 270° West  Level FlightAware Approximate
10:11AM 39.9000 -75.9198 270° West  Level FlightAware Approximate
10:12AM 39.9000 -76.0206 270° West  Level FlightAware Approximate
10:13AM 39.9000 -76.1213 270° West  Level FlightAware Approximate
10:14AM 39.9000 -76.2221 270° West  Level FlightAware Approximate
10:15AM 39.9000 -76.3228 270° West  Level FlightAware Approximate
10:16AM 39.9147 -76.4215 282° West  Level FlightAware Approximate
10:17AM 39.9167 -76.5220 270° West  Level FlightAware Approximate
10:18AM 39.9167 -76.6228 270° West  Level FlightAware Approximate
10:19AM 39.9193 -76.7234 278° West  Level FlightAware Approximate
10:20AM 39.9304 -76.8231 278° West  Level FlightAware Approximate
10:21AM 39.9333 -76.9236 270° West  Level FlightAware Approximate
10:22AM 39.9334 -77.0244 270° West  Level FlightAware Approximate
10:23AM 39.9356 -77.1250 277° West  Level FlightAware Approximate
10:24AM 39.9447 -77.2252 277° West  Level FlightAware Approximate
10:25AM 39.9500 -77.3256 270° West  Level FlightAware Approximate
10:26AM 39.9500 -77.4264 270° West  Level FlightAware Approximate
10:27AM 39.9540 -77.5271 273° West  Level FlightAware Approximate
10:28AM 39.9583 -77.6277 273° West  Level FlightAware Approximate
10:29AM 39.9624 -77.7284 273° West  Level FlightAware Approximate
10:30AM 39.9665 -77.8291 273° West  Level FlightAware Approximate
10:31AM 39.9667 -77.9300 270° West  Level FlightAware Approximate
10:32AM 39.9688 -78.0308 272° West  Level FlightAware Approximate
10:33AM 39.9714 -78.1316 272° West  Level FlightAware Approximate
10:34AM 39.9739 -78.2324 272° West  Level FlightAware Approximate
10:35AM 39.9763 -78.3332 272° West  Level FlightAware Approximate
10:36AM 39.9786 -78.4340 272° West  Level FlightAware Approximate
10:37AM 39.9809 -78.5349 272° West  Level FlightAware Approximate
10:38AM 39.9830 -78.6357 272° West  Level FlightAware Approximate
10:39AM 39.9833 -78.7366 270° West  Level FlightAware Approximate
10:40AM 39.9833 -78.8374 270° West  Level FlightAware Approximate
10:41AM 39.9834 -78.9383 270° West  Level FlightAware Approximate
10:42AM 39.9834 -79.0392 270° West  Level FlightAware Approximate
10:43AM 39.9833 -79.1401 270° West  Level FlightAware Approximate
10:44AM 39.9868 -79.2407 276° West  Level FlightAware Approximate
10:45AM 39.9951 -79.3410 276° West  Level FlightAware Approximate
10:46AM 40.0177 -79.4344 323° Northwest  Level FlightAware Approximate
10:47AM 40.0672 -79.5109 306° West  Level FlightAware Approximate
10:48AM 40.1126 -79.5927 306° West  Level FlightAware Approximate
10:49AM 40.1638 -79.6675 308° West  Level FlightAware Approximate
10:50AM 40.2123 -79.7463 309° West  Level FlightAware Approximate
10:51AM 40.2613 -79.8247 309° West  Level FlightAware Approximate
10:52AM 40.3067 -79.9066 306° West  Level FlightAware Approximate
10:53AM 40.3517 -79.9891 306° West  Level FlightAware Approximate
10:54AM 40.4005 -80.0676 303° West  Level FlightAware Approximate